sensor_id;sensor_type;location;lat;lon;timestamp;P1;durP1;ratioP1;P2;durP2;ratioP2
24547;SDS011;12713;51.624;4.924;2022-10-10T00:01:51;15.05;;;11.32;;
24547;SDS011;12713;51.624;4.924;2022-10-10T00:04:17;15.50;;;11.75;;
24547;SDS011;12713;51.624;4.924;2022-10-10T00:06:43;14.13;;;11.18;;
24547;SDS011;12713;51.624;4.924;2022-10-10T00:09:09;11.18;;;9.98;;
24547;SDS011;12713;51.624;4.924;2022-10-10T00:11:35;18.50;;;13.02;;
24547;SDS011;12713;51.624;4.924;2022-10-10T00:14:01;15.27;;;11.85;;
24547;SDS011;12713;51.624;4.924;2022-10-10T00:16:27;17.63;;;12.10;;
24547;SDS011;12713;51.624;4.924;2022-10-10T00:18:53;13.52;;;10.65;;
24547;SDS011;12713;51.624;4.924;2022-10-10T00:21:19;12.88;;;10.40;;
24547;SDS011;12713;51.624;4.924;2022-10-10T00:23:45;11.55;;;9.25;;
24547;SDS011;12713;51.624;4.924;2022-10-10T00:26:11;12.25;;;9.57;;
24547;SDS011;12713;51.624;4.924;2022-10-10T00:28:37;11.90;;;8.38;;
24547;SDS011;12713;51.624;4.924;2022-10-10T00:31:04;12.65;;;10.07;;
24547;SDS011;12713;51.624;4.924;2022-10-10T00:33:31;10.45;;;8.50;;
24547;SDS011;12713;51.624;4.924;2022-10-10T00:35:57;15.10;;;10.82;;
24547;SDS011;12713;51.624;4.924;2022-10-10T00:38:23;12.23;;;9.02;;
24547;SDS011;12713;51.624;4.924;2022-10-10T00:40:50;14.10;;;8.48;;
24547;SDS011;12713;51.624;4.924;2022-10-10T00:43:18;15.75;;;8.65;;
24547;SDS011;12713;51.624;4.924;2022-10-10T00:45:44;14.70;;;8.90;;
24547;SDS011;12713;51.624;4.924;2022-10-10T00:50:39;14.00;;;7.75;;
24547;SDS011;12713;51.624;4.924;2022-10-10T00:53:06;12.98;;;7.50;;
24547;SDS011;12713;51.624;4.924;2022-10-10T00:55:33;12.27;;;7.53;;
24547;SDS011;12713;51.624;4.924;2022-10-10T00:57:59;13.48;;;7.45;;
24547;SDS011;12713;51.624;4.924;2022-10-10T01:00:25;12.10;;;7.15;;
24547;SDS011;12713;51.624;4.924;2022-10-10T01:02:51;10.23;;;6.75;;
24547;SDS011;12713;51.624;4.924;2022-10-10T01:05:17;9.88;;;6.65;;
24547;SDS011;12713;51.624;4.924;2022-10-10T01:07:43;13.55;;;7.93;;
24547;SDS011;12713;51.624;4.924;2022-10-10T01:10:11;14.32;;;7.20;;
24547;SDS011;12713;51.624;4.924;2022-10-10T01:15:22;11.48;;;7.68;;
24547;SDS011;12713;51.624;4.924;2022-10-10T01:20:34;11.35;;;7.30;;
24547;SDS011;12713;51.624;4.924;2022-10-10T01:23:17;12.63;;;6.75;;
24547;SDS011;12713;51.624;4.924;2022-10-10T01:28:36;11.38;;;7.40;;
24547;SDS011;12713;51.624;4.924;2022-10-10T01:31:04;13.60;;;7.95;;
24547;SDS011;12713;51.624;4.924;2022-10-10T01:33:31;11.05;;;7.50;;
24547;SDS011;12713;51.624;4.924;2022-10-10T01:36:02;9.15;;;7.30;;
24547;SDS011;12713;51.624;4.924;2022-10-10T01:38:31;11.60;;;7.78;;
24547;SDS011;12713;51.624;4.924;2022-10-10T01:43:29;15.77;;;7.13;;
24547;SDS011;12713;51.624;4.924;2022-10-10T01:45:55;13.23;;;7.72;;
24547;SDS011;12713;51.624;4.924;2022-10-10T01:48:24;15.98;;;7.63;;
24547;SDS011;12713;51.624;4.924;2022-10-10T02:01:30;13.65;;;7.78;;
24547;SDS011;12713;51.624;4.924;2022-10-10T02:04:17;14.43;;;7.43;;
24547;SDS011;12713;51.624;4.924;2022-10-10T02:07:08;11.45;;;7.57;;
24547;SDS011;12713;51.624;4.924;2022-10-10T02:09:35;11.98;;;8.27;;
24547;SDS011;12713;51.624;4.924;2022-10-10T02:12:02;14.63;;;8.25;;
24547;SDS011;12713;51.624;4.924;2022-10-10T02:14:36;12.02;;;8.38;;
24547;SDS011;12713;51.624;4.924;2022-10-10T02:17:05;10.15;;;7.95;;
24547;SDS011;12713;51.624;4.924;2022-10-10T02:19:33;19.50;;;7.65;;
24547;SDS011;12713;51.624;4.924;2022-10-10T02:21:59;15.68;;;7.00;;
24547;SDS011;12713;51.624;4.924;2022-10-10T02:24:26;16.02;;;7.85;;
24547;SDS011;12713;51.624;4.924;2022-10-10T02:26:58;14.55;;;8.43;;
24547;SDS011;12713;51.624;4.924;2022-10-10T02:29:28;19.15;;;9.65;;
24547;SDS011;12713;51.624;4.924;2022-10-10T02:32:17;19.40;;;10.18;;
24547;SDS011;12713;51.624;4.924;2022-10-10T02:34:47;22.98;;;10.27;;
24547;SDS011;12713;51.624;4.924;2022-10-10T02:37:14;19.48;;;10.65;;
24547;SDS011;12713;51.624;4.924;2022-10-10T02:39:44;18.30;;;10.95;;
24547;SDS011;12713;51.624;4.924;2022-10-10T02:42:12;18.30;;;10.00;;
24547;SDS011;12713;51.624;4.924;2022-10-10T02:44:39;21.50;;;8.30;;
24547;SDS011;12713;51.624;4.924;2022-10-10T02:47:06;15.70;;;9.48;;
24547;SDS011;12713;51.624;4.924;2022-10-10T02:49:32;17.77;;;9.75;;
24547;SDS011;12713;51.624;4.924;2022-10-10T02:51:59;14.43;;;8.80;;
24547;SDS011;12713;51.624;4.924;2022-10-10T02:54:25;14.45;;;9.00;;
24547;SDS011;12713;51.624;4.924;2022-10-10T02:56:51;19.58;;;10.35;;
24547;SDS011;12713;51.624;4.924;2022-10-10T02:59:17;11.63;;;7.95;;
24547;SDS011;12713;51.624;4.924;2022-10-10T03:01:43;13.43;;;8.20;;
24547;SDS011;12713;51.624;4.924;2022-10-10T03:04:10;11.10;;;7.55;;
24547;SDS011;12713;51.624;4.924;2022-10-10T03:06:36;12.63;;;8.18;;
24547;SDS011;12713;51.624;4.924;2022-10-10T03:09:03;12.40;;;8.07;;
24547;SDS011;12713;51.624;4.924;2022-10-10T03:11:29;10.57;;;7.78;;
24547;SDS011;12713;51.624;4.924;2022-10-10T03:13:55;9.23;;;7.68;;
24547;SDS011;12713;51.624;4.924;2022-10-10T03:16:21;13.52;;;9.23;;
24547;SDS011;12713;51.624;4.924;2022-10-10T03:18:47;12.68;;;8.77;;
24547;SDS011;12713;51.624;4.924;2022-10-10T03:21:13;14.70;;;9.63;;
24547;SDS011;12713;51.624;4.924;2022-10-10T03:23:39;11.50;;;8.75;;
24547;SDS011;12713;51.624;4.924;2022-10-10T03:26:06;11.25;;;8.75;;
24547;SDS011;12713;51.624;4.924;2022-10-10T03:28:32;16.33;;;8.93;;
24547;SDS011;12713;51.624;4.924;2022-10-10T03:30:58;13.30;;;8.57;;
24547;SDS011;12713;51.624;4.924;2022-10-10T03:33:24;11.88;;;8.68;;
24547;SDS011;12713;51.624;4.924;2022-10-10T03:35:50;11.95;;;8.52;;
24547;SDS011;12713;51.624;4.924;2022-10-10T03:38:16;12.85;;;8.90;;
24547;SDS011;12713;51.624;4.924;2022-10-10T03:40:42;13.23;;;9.73;;
24547;SDS011;12713;51.624;4.924;2022-10-10T03:43:10;12.27;;;8.90;;
24547;SDS011;12713;51.624;4.924;2022-10-10T03:45:36;17.30;;;9.27;;
24547;SDS011;12713;51.624;4.924;2022-10-10T03:48:02;15.77;;;9.80;;
24547;SDS011;12713;51.624;4.924;2022-10-10T03:50:28;14.27;;;9.18;;
24547;SDS011;12713;51.624;4.924;2022-10-10T03:52:54;13.48;;;9.60;;
24547;SDS011;12713;51.624;4.924;2022-10-10T03:55:20;14.07;;;9.30;;
24547;SDS011;12713;51.624;4.924;2022-10-10T03:57:46;13.93;;;9.43;;
24547;SDS011;12713;51.624;4.924;2022-10-10T04:00:12;11.98;;;9.00;;
24547;SDS011;12713;51.624;4.924;2022-10-10T04:02:38;13.02;;;9.13;;
24547;SDS011;12713;51.624;4.924;2022-10-10T04:05:04;15.65;;;9.63;;
24547;SDS011;12713;51.624;4.924;2022-10-10T04:07:31;13.70;;;9.55;;
24547;SDS011;12713;51.624;4.924;2022-10-10T04:09:57;12.18;;;8.98;;
24547;SDS011;12713;51.624;4.924;2022-10-10T04:12:23;12.05;;;8.93;;
24547;SDS011;12713;51.624;4.924;2022-10-10T04:14:49;15.95;;;7.90;;
24547;SDS011;12713;51.624;4.924;2022-10-10T04:17:15;16.55;;;9.95;;
24547;SDS011;12713;51.624;4.924;2022-10-10T04:19:41;14.30;;;9.18;;
24547;SDS011;12713;51.624;4.924;2022-10-10T04:22:07;14.27;;;9.52;;
24547;SDS011;12713;51.624;4.924;2022-10-10T04:24:33;15.65;;;9.02;;
24547;SDS011;12713;51.624;4.924;2022-10-10T04:26:59;15.57;;;9.63;;
24547;SDS011;12713;51.624;4.924;2022-10-10T04:29:25;14.07;;;8.32;;
24547;SDS011;12713;51.624;4.924;2022-10-10T04:31:51;12.43;;;9.07;;
24547;SDS011;12713;51.624;4.924;2022-10-10T04:34:17;14.82;;;8.52;;
24547;SDS011;12713;51.624;4.924;2022-10-10T04:36:43;13.10;;;8.13;;
24547;SDS011;12713;51.624;4.924;2022-10-10T04:39:09;14.60;;;10.15;;
24547;SDS011;12713;51.624;4.924;2022-10-10T04:41:35;17.00;;;9.23;;
24547;SDS011;12713;51.624;4.924;2022-10-10T04:44:01;16.80;;;9.45;;
24547;SDS011;12713;51.624;4.924;2022-10-10T04:46:27;15.57;;;8.25;;
24547;SDS011;12713;51.624;4.924;2022-10-10T04:48:53;13.75;;;9.50;;
24547;SDS011;12713;51.624;4.924;2022-10-10T04:51:19;13.85;;;8.95;;
24547;SDS011;12713;51.624;4.924;2022-10-10T04:53:45;17.05;;;8.98;;
24547;SDS011;12713;51.624;4.924;2022-10-10T04:56:11;15.93;;;9.30;;
24547;SDS011;12713;51.624;4.924;2022-10-10T04:58:37;16.23;;;8.90;;
24547;SDS011;12713;51.624;4.924;2022-10-10T05:01:03;17.15;;;9.82;;
24547;SDS011;12713;51.624;4.924;2022-10-10T05:03:29;14.10;;;9.38;;
24547;SDS011;12713;51.624;4.924;2022-10-10T05:05:55;16.95;;;9.77;;
24547;SDS011;12713;51.624;4.924;2022-10-10T05:08:22;15.75;;;8.95;;
24547;SDS011;12713;51.624;4.924;2022-10-10T05:10:50;16.42;;;8.45;;
24547;SDS011;12713;51.624;4.924;2022-10-10T05:13:16;17.98;;;9.15;;
24547;SDS011;12713;51.624;4.924;2022-10-10T05:15:42;12.27;;;8.65;;
24547;SDS011;12713;51.624;4.924;2022-10-10T05:18:08;16.88;;;9.60;;
24547;SDS011;12713;51.624;4.924;2022-10-10T05:20:34;18.40;;;9.95;;
24547;SDS011;12713;51.624;4.924;2022-10-10T05:23:01;13.57;;;8.45;;
24547;SDS011;12713;51.624;4.924;2022-10-10T05:25:27;17.95;;;9.57;;
24547;SDS011;12713;51.624;4.924;2022-10-10T05:27:54;12.45;;;8.68;;
24547;SDS011;12713;51.624;4.924;2022-10-10T05:30:20;15.50;;;8.77;;
24547;SDS011;12713;51.624;4.924;2022-10-10T05:32:46;17.23;;;9.43;;
24547;SDS011;12713;51.624;4.924;2022-10-10T05:35:12;16.13;;;10.70;;
24547;SDS011;12713;51.624;4.924;2022-10-10T05:37:38;12.80;;;7.70;;
24547;SDS011;12713;51.624;4.924;2022-10-10T05:40:04;18.50;;;11.02;;
24547;SDS011;12713;51.624;4.924;2022-10-10T05:42:30;16.85;;;10.68;;
24547;SDS011;12713;51.624;4.924;2022-10-10T05:44:59;22.38;;;12.40;;
24547;SDS011;12713;51.624;4.924;2022-10-10T05:47:24;16.45;;;12.82;;
24547;SDS011;12713;51.624;4.924;2022-10-10T05:49:50;17.23;;;11.77;;
24547;SDS011;12713;51.624;4.924;2022-10-10T05:52:17;16.83;;;11.02;;
24547;SDS011;12713;51.624;4.924;2022-10-10T05:54:43;19.58;;;10.88;;
24547;SDS011;12713;51.624;4.924;2022-10-10T05:57:09;16.65;;;10.40;;
24547;SDS011;12713;51.624;4.924;2022-10-10T05:59:35;17.50;;;10.20;;
24547;SDS011;12713;51.624;4.924;2022-10-10T06:02:01;20.30;;;9.52;;
24547;SDS011;12713;51.624;4.924;2022-10-10T06:04:27;14.55;;;9.02;;
24547;SDS011;12713;51.624;4.924;2022-10-10T06:06:53;19.77;;;8.77;;
24547;SDS011;12713;51.624;4.924;2022-10-10T06:09:19;15.50;;;9.77;;
24547;SDS011;12713;51.624;4.924;2022-10-10T06:11:44;15.60;;;9.77;;
24547;SDS011;12713;51.624;4.924;2022-10-10T06:14:10;18.95;;;9.63;;
24547;SDS011;12713;51.624;4.924;2022-10-10T06:16:36;22.70;;;10.13;;
24547;SDS011;12713;51.624;4.924;2022-10-10T06:19:03;17.13;;;7.97;;
24547;SDS011;12713;51.624;4.924;2022-10-10T06:21:29;15.43;;;8.32;;
24547;SDS011;12713;51.624;4.924;2022-10-10T06:23:55;18.20;;;8.95;;
24547;SDS011;12713;51.624;4.924;2022-10-10T06:26:22;17.38;;;9.93;;
24547;SDS011;12713;51.624;4.924;2022-10-10T06:28:47;19.15;;;8.30;;
24547;SDS011;12713;51.624;4.924;2022-10-10T06:31:16;14.27;;;8.63;;
24547;SDS011;12713;51.624;4.924;2022-10-10T06:33:42;13.85;;;8.68;;
24547;SDS011;12713;51.624;4.924;2022-10-10T06:36:09;17.77;;;8.95;;
24547;SDS011;12713;51.624;4.924;2022-10-10T06:38:36;15.85;;;9.40;;
24547;SDS011;12713;51.624;4.924;2022-10-10T06:41:03;17.95;;;9.45;;
24547;SDS011;12713;51.624;4.924;2022-10-10T06:43:29;13.38;;;8.23;;
24547;SDS011;12713;51.624;4.924;2022-10-10T06:45:56;18.63;;;10.10;;
24547;SDS011;12713;51.624;4.924;2022-10-10T06:48:22;17.63;;;8.25;;
24547;SDS011;12713;51.624;4.924;2022-10-10T06:53:26;13.32;;;7.72;;
24547;SDS011;12713;51.624;4.924;2022-10-10T06:55:53;11.48;;;8.23;;
24547;SDS011;12713;51.624;4.924;2022-10-10T06:58:20;17.05;;;8.00;;
24547;SDS011;12713;51.624;4.924;2022-10-10T07:00:49;14.95;;;8.82;;
24547;SDS011;12713;51.624;4.924;2022-10-10T07:03:15;14.00;;;8.40;;
24547;SDS011;12713;51.624;4.924;2022-10-10T07:05:42;17.17;;;7.38;;
24547;SDS011;12713;51.624;4.924;2022-10-10T07:08:08;13.07;;;8.75;;
24547;SDS011;12713;51.624;4.924;2022-10-10T07:10:34;14.05;;;8.50;;
24547;SDS011;12713;51.624;4.924;2022-10-10T07:13:00;13.25;;;7.95;;
24547;SDS011;12713;51.624;4.924;2022-10-10T07:15:26;18.67;;;7.95;;
24547;SDS011;12713;51.624;4.924;2022-10-10T07:17:59;12.48;;;7.63;;
24547;SDS011;12713;51.624;4.924;2022-10-10T07:20:25;11.68;;;7.93;;
24547;SDS011;12713;51.624;4.924;2022-10-10T07:22:51;10.68;;;7.07;;
24547;SDS011;12713;51.624;4.924;2022-10-10T07:25:18;15.57;;;7.65;;
24547;SDS011;12713;51.624;4.924;2022-10-10T07:27:44;15.20;;;7.10;;
24547;SDS011;12713;51.624;4.924;2022-10-10T07:30:10;15.32;;;7.18;;
24547;SDS011;12713;51.624;4.924;2022-10-10T07:32:36;13.88;;;7.13;;
24547;SDS011;12713;51.624;4.924;2022-10-10T07:35:02;10.25;;;7.03;;
24547;SDS011;12713;51.624;4.924;2022-10-10T07:37:28;16.23;;;7.55;;
24547;SDS011;12713;51.624;4.924;2022-10-10T07:39:54;17.02;;;7.53;;
24547;SDS011;12713;51.624;4.924;2022-10-10T07:42:20;12.98;;;6.97;;
24547;SDS011;12713;51.624;4.924;2022-10-10T07:44:46;15.15;;;7.57;;
24547;SDS011;12713;51.624;4.924;2022-10-10T07:47:12;11.40;;;7.68;;
24547;SDS011;12713;51.624;4.924;2022-10-10T07:49:38;12.40;;;7.60;;
24547;SDS011;12713;51.624;4.924;2022-10-10T07:52:04;15.88;;;7.70;;
24547;SDS011;12713;51.624;4.924;2022-10-10T07:54:30;12.90;;;7.70;;
24547;SDS011;12713;51.624;4.924;2022-10-10T07:56:57;17.02;;;8.20;;
24547;SDS011;12713;51.624;4.924;2022-10-10T07:59:23;19.20;;;7.53;;
24547;SDS011;12713;51.624;4.924;2022-10-10T08:01:49;14.50;;;8.02;;
24547;SDS011;12713;51.624;4.924;2022-10-10T08:04:16;13.82;;;7.50;;
24547;SDS011;12713;51.624;4.924;2022-10-10T08:06:42;12.93;;;7.03;;
24547;SDS011;12713;51.624;4.924;2022-10-10T08:09:08;13.02;;;7.40;;
24547;SDS011;12713;51.624;4.924;2022-10-10T08:11:34;13.30;;;8.30;;
24547;SDS011;12713;51.624;4.924;2022-10-10T08:14:00;14.35;;;7.97;;
24547;SDS011;12713;51.624;4.924;2022-10-10T08:16:27;17.00;;;8.45;;
24547;SDS011;12713;51.624;4.924;2022-10-10T08:18:53;16.08;;;7.50;;
24547;SDS011;12713;51.624;4.924;2022-10-10T08:21:19;13.07;;;8.02;;
24547;SDS011;12713;51.624;4.924;2022-10-10T08:23:45;15.23;;;7.30;;
24547;SDS011;12713;51.624;4.924;2022-10-10T08:26:12;14.48;;;8.00;;
24547;SDS011;12713;51.624;4.924;2022-10-10T08:28:38;15.07;;;7.63;;
24547;SDS011;12713;51.624;4.924;2022-10-10T08:31:06;14.63;;;7.35;;
24547;SDS011;12713;51.624;4.924;2022-10-10T08:33:32;13.48;;;7.07;;
24547;SDS011;12713;51.624;4.924;2022-10-10T08:35:58;11.52;;;6.57;;
24547;SDS011;12713;51.624;4.924;2022-10-10T08:38:28;13.27;;;6.45;;
24547;SDS011;12713;51.624;4.924;2022-10-10T08:40:55;11.50;;;7.13;;
24547;SDS011;12713;51.624;4.924;2022-10-10T08:43:26;11.32;;;7.13;;
24547;SDS011;12713;51.624;4.924;2022-10-10T08:45:53;11.32;;;6.82;;
24547;SDS011;12713;51.624;4.924;2022-10-10T08:48:20;14.40;;;7.22;;
24547;SDS011;12713;51.624;4.924;2022-10-10T08:50:50;13.77;;;6.80;;
24547;SDS011;12713;51.624;4.924;2022-10-10T08:53:27;12.75;;;6.85;;
24547;SDS011;12713;51.624;4.924;2022-10-10T08:55:56;10.13;;;6.38;;
24547;SDS011;12713;51.624;4.924;2022-10-10T08:58:23;11.50;;;6.80;;
24547;SDS011;12713;51.624;4.924;2022-10-10T09:00:57;12.20;;;6.40;;
24547;SDS011;12713;51.624;4.924;2022-10-10T09:13:36;13.82;;;6.80;;
24547;SDS011;12713;51.624;4.924;2022-10-10T09:16:24;11.30;;;6.18;;
24547;SDS011;12713;51.624;4.924;2022-10-10T09:18:55;17.40;;;6.45;;
24547;SDS011;12713;51.624;4.924;2022-10-10T09:21:24;15.63;;;6.63;;
24547;SDS011;12713;51.624;4.924;2022-10-10T09:23:55;14.30;;;6.85;;
24547;SDS011;12713;51.624;4.924;2022-10-10T09:26:26;15.15;;;6.63;;
24547;SDS011;12713;51.624;4.924;2022-10-10T09:28:58;24.40;;;7.43;;
24547;SDS011;12713;51.624;4.924;2022-10-10T09:31:35;13.95;;;7.78;;
24547;SDS011;12713;51.624;4.924;2022-10-10T09:34:03;15.60;;;7.13;;
24547;SDS011;12713;51.624;4.924;2022-10-10T09:36:34;12.80;;;7.30;;
24547;SDS011;12713;51.624;4.924;2022-10-10T09:39:03;12.68;;;6.80;;
24547;SDS011;12713;51.624;4.924;2022-10-10T09:41:35;20.52;;;7.18;;
24547;SDS011;12713;51.624;4.924;2022-10-10T09:44:04;15.27;;;7.90;;
24547;SDS011;12713;51.624;4.924;2022-10-10T09:46:31;21.48;;;7.50;;
24547;SDS011;12713;51.624;4.924;2022-10-10T09:48:57;12.57;;;6.93;;
24547;SDS011;12713;51.624;4.924;2022-10-10T09:51:23;12.80;;;7.00;;
24547;SDS011;12713;51.624;4.924;2022-10-10T09:53:49;12.18;;;7.05;;
24547;SDS011;12713;51.624;4.924;2022-10-10T09:56:17;10.80;;;7.35;;
24547;SDS011;12713;51.624;4.924;2022-10-10T09:58:47;16.63;;;7.57;;
24547;SDS011;12713;51.624;4.924;2022-10-10T10:01:23;16.58;;;7.72;;
24547;SDS011;12713;51.624;4.924;2022-10-10T10:04:11;9.93;;;6.13;;
24547;SDS011;12713;51.624;4.924;2022-10-10T10:06:37;14.82;;;7.22;;
24547;SDS011;12713;51.624;4.924;2022-10-10T10:09:04;14.25;;;6.80;;
24547;SDS011;12713;51.624;4.924;2022-10-10T10:11:31;12.45;;;7.03;;
24547;SDS011;12713;51.624;4.924;2022-10-10T10:13:58;19.65;;;6.95;;
24547;SDS011;12713;51.624;4.924;2022-10-10T10:16:36;12.70;;;6.72;;
24547;SDS011;12713;51.624;4.924;2022-10-10T10:19:03;16.30;;;6.30;;
24547;SDS011;12713;51.624;4.924;2022-10-10T10:21:31;14.95;;;6.50;;
24547;SDS011;12713;51.624;4.924;2022-10-10T10:26:24;16.67;;;7.03;;
24547;SDS011;12713;51.624;4.924;2022-10-10T10:28:51;12.13;;;6.50;;
24547;SDS011;12713;51.624;4.924;2022-10-10T10:36:34;16.65;;;6.38;;
24547;SDS011;12713;51.624;4.924;2022-10-10T10:49:35;10.60;;;6.20;;
24547;SDS011;12713;51.624;4.924;2022-10-10T10:52:09;13.23;;;6.45;;
24547;SDS011;12713;51.624;4.924;2022-10-10T10:59:49;13.85;;;6.40;;
24547;SDS011;12713;51.624;4.924;2022-10-10T11:02:26;10.35;;;6.18;;
24547;SDS011;12713;51.624;4.924;2022-10-10T11:07:35;14.10;;;5.95;;
24547;SDS011;12713;51.624;4.924;2022-10-10T11:17:29;11.43;;;5.63;;
24547;SDS011;12713;51.624;4.924;2022-10-10T11:20:05;11.30;;;5.63;;
24547;SDS011;12713;51.624;4.924;2022-10-10T11:22:36;16.98;;;6.18;;
24547;SDS011;12713;51.624;4.924;2022-10-10T11:25:12;12.32;;;5.95;;
24547;SDS011;12713;51.624;4.924;2022-10-10T11:27:41;14.43;;;5.82;;
24547;SDS011;12713;51.624;4.924;2022-10-10T11:32:53;14.07;;;6.15;;
24547;SDS011;12713;51.624;4.924;2022-10-10T11:35:35;13.93;;;5.55;;
24547;SDS011;12713;51.624;4.924;2022-10-10T11:40:50;11.13;;;6.15;;
24547;SDS011;12713;51.624;4.924;2022-10-10T11:43:19;12.80;;;5.63;;
24547;SDS011;12713;51.624;4.924;2022-10-10T11:45:47;10.45;;;5.30;;
24547;SDS011;12713;51.624;4.924;2022-10-10T11:48:17;10.98;;;5.03;;
24547;SDS011;12713;51.624;4.924;2022-10-10T11:50:45;13.38;;;5.15;;
24547;SDS011;12713;51.624;4.924;2022-10-10T11:53:18;15.48;;;5.72;;
24547;SDS011;12713;51.624;4.924;2022-10-10T11:55:53;10.23;;;5.07;;
24547;SDS011;12713;51.624;4.924;2022-10-10T12:00:54;12.55;;;5.75;;
24547;SDS011;12713;51.624;4.924;2022-10-10T12:03:24;12.25;;;5.35;;
24547;SDS011;12713;51.624;4.924;2022-10-10T12:05:54;11.07;;;4.63;;
24547;SDS011;12713;51.624;4.924;2022-10-10T12:08:23;10.85;;;5.07;;
24547;SDS011;12713;51.624;4.924;2022-10-10T12:16:02;11.20;;;5.18;;
24547;SDS011;12713;51.624;4.924;2022-10-10T12:18:30;15.00;;;5.53;;
24547;SDS011;12713;51.624;4.924;2022-10-10T12:21:07;13.57;;;5.03;;
24547;SDS011;12713;51.624;4.924;2022-10-10T12:23:33;10.05;;;5.47;;
24547;SDS011;12713;51.624;4.924;2022-10-10T12:26:03;17.48;;;5.63;;
24547;SDS011;12713;51.624;4.924;2022-10-10T12:28:34;15.55;;;5.80;;
24547;SDS011;12713;51.624;4.924;2022-10-10T12:46:39;13.77;;;5.40;;
24547;SDS011;12713;51.624;4.924;2022-10-10T12:49:22;11.38;;;5.28;;
24547;SDS011;12713;51.624;4.924;2022-10-10T12:54:37;17.70;;;4.65;;
24547;SDS011;12713;51.624;4.924;2022-10-10T12:59:36;16.23;;;5.15;;
24547;SDS011;12713;51.624;4.924;2022-10-10T13:02:05;13.23;;;5.07;;
24547;SDS011;12713;51.624;4.924;2022-10-10T13:04:31;12.38;;;4.88;;
24547;SDS011;12713;51.624;4.924;2022-10-10T13:07:01;12.20;;;4.22;;
24547;SDS011;12713;51.624;4.924;2022-10-10T13:09:31;14.43;;;5.30;;
24547;SDS011;12713;51.624;4.924;2022-10-10T13:11:59;16.80;;;6.70;;
24547;SDS011;12713;51.624;4.924;2022-10-10T13:14:26;12.82;;;5.65;;
24547;SDS011;12713;51.624;4.924;2022-10-10T13:16:52;10.80;;;5.28;;
24547;SDS011;12713;51.624;4.924;2022-10-10T13:19:20;10.40;;;4.38;;
24547;SDS011;12713;51.624;4.924;2022-10-10T13:21:46;14.35;;;5.00;;
24547;SDS011;12713;51.624;4.924;2022-10-10T13:24:14;11.90;;;4.28;;
24547;SDS011;12713;51.624;4.924;2022-10-10T13:26:46;14.27;;;4.95;;
24547;SDS011;12713;51.624;4.924;2022-10-10T13:31:47;13.68;;;4.38;;
24547;SDS011;12713;51.624;4.924;2022-10-10T13:34:17;8.93;;;4.70;;
24547;SDS011;12713;51.624;4.924;2022-10-10T13:36:46;16.70;;;5.13;;
24547;SDS011;12713;51.624;4.924;2022-10-10T13:39:16;11.13;;;3.88;;
24547;SDS011;12713;51.624;4.924;2022-10-10T13:41:44;13.20;;;4.00;;
24547;SDS011;12713;51.624;4.924;2022-10-10T13:44:14;8.82;;;3.53;;
24547;SDS011;12713;51.624;4.924;2022-10-10T13:46:41;9.88;;;2.88;;
24547;SDS011;12713;51.624;4.924;2022-10-10T13:49:23;7.18;;;3.08;;
24547;SDS011;12713;51.624;4.924;2022-10-10T13:52:19;5.40;;;2.28;;
24547;SDS011;12713;51.624;4.924;2022-10-10T13:54:46;3.92;;;1.60;;
24547;SDS011;12713;51.624;4.924;2022-10-10T13:57:16;2.67;;;1.40;;
24547;SDS011;12713;51.624;4.924;2022-10-10T13:59:44;4.55;;;1.30;;
24547;SDS011;12713;51.624;4.924;2022-10-10T14:02:13;8.23;;;1.50;;
24547;SDS011;12713;51.624;4.924;2022-10-10T14:04:48;3.53;;;1.27;;
24547;SDS011;12713;51.624;4.924;2022-10-10T14:09:42;7.70;;;1.20;;
24547;SDS011;12713;51.624;4.924;2022-10-10T14:12:23;2.65;;;1.30;;
24547;SDS011;12713;51.624;4.924;2022-10-10T14:14:51;3.70;;;1.40;;
24547;SDS011;12713;51.624;4.924;2022-10-10T14:17:18;4.20;;;1.40;;
24547;SDS011;12713;51.624;4.924;2022-10-10T14:19:44;4.88;;;1.30;;
24547;SDS011;12713;51.624;4.924;2022-10-10T14:22:11;2.92;;;1.25;;
24547;SDS011;12713;51.624;4.924;2022-10-10T14:24:37;9.57;;;1.40;;
24547;SDS011;12713;51.624;4.924;2022-10-10T14:27:11;5.05;;;1.10;;
24547;SDS011;12713;51.624;4.924;2022-10-10T14:29:39;2.45;;;0.82;;
24547;SDS011;12713;51.624;4.924;2022-10-10T14:32:05;1.65;;;0.60;;
24547;SDS011;12713;51.624;4.924;2022-10-10T14:34:31;3.15;;;0.80;;
24547;SDS011;12713;51.624;4.924;2022-10-10T14:36:57;2.78;;;0.90;;
24547;SDS011;12713;51.624;4.924;2022-10-10T14:39:23;1.60;;;0.60;;
24547;SDS011;12713;51.624;4.924;2022-10-10T14:41:49;2.03;;;0.70;;
24547;SDS011;12713;51.624;4.924;2022-10-10T14:44:15;2.20;;;0.30;;
24547;SDS011;12713;51.624;4.924;2022-10-10T14:46:41;3.08;;;0.60;;
24547;SDS011;12713;51.624;4.924;2022-10-10T14:49:15;1.45;;;0.73;;
24547;SDS011;12713;51.624;4.924;2022-10-10T14:51:42;3.38;;;0.82;;
24547;SDS011;12713;51.624;4.924;2022-10-10T14:54:08;8.15;;;1.08;;
24547;SDS011;12713;51.624;4.924;2022-10-10T14:56:34;6.03;;;1.55;;
24547;SDS011;12713;51.624;4.924;2022-10-10T14:59:00;6.28;;;1.50;;
24547;SDS011;12713;51.624;4.924;2022-10-10T15:01:27;4.88;;;1.67;;
24547;SDS011;12713;51.624;4.924;2022-10-10T15:03:53;11.18;;;1.40;;
24547;SDS011;12713;51.624;4.924;2022-10-10T15:06:19;3.92;;;1.25;;
24547;SDS011;12713;51.624;4.924;2022-10-10T15:08:45;2.80;;;1.10;;
24547;SDS011;12713;51.624;4.924;2022-10-10T15:11:15;7.05;;;1.50;;
24547;SDS011;12713;51.624;4.924;2022-10-10T15:13:41;9.43;;;1.60;;
24547;SDS011;12713;51.624;4.924;2022-10-10T15:16:07;6.20;;;1.60;;
24547;SDS011;12713;51.624;4.924;2022-10-10T15:18:33;8.50;;;2.30;;
24547;SDS011;12713;51.624;4.924;2022-10-10T15:21:06;9.73;;;2.08;;
24547;SDS011;12713;51.624;4.924;2022-10-10T15:23:33;10.15;;;2.35;;
24547;SDS011;12713;51.624;4.924;2022-10-10T15:25:59;7.43;;;1.88;;
24547;SDS011;12713;51.624;4.924;2022-10-10T15:28:25;6.78;;;1.83;;
24547;SDS011;12713;51.624;4.924;2022-10-10T15:30:51;8.07;;;1.88;;
24547;SDS011;12713;51.624;4.924;2022-10-10T15:33:18;11.30;;;2.58;;
24547;SDS011;12713;51.624;4.924;2022-10-10T15:35:44;11.45;;;2.17;;
24547;SDS011;12713;51.624;4.924;2022-10-10T15:38:10;11.68;;;2.22;;
24547;SDS011;12713;51.624;4.924;2022-10-10T15:40:37;9.02;;;2.35;;
24547;SDS011;12713;51.624;4.924;2022-10-10T15:43:03;15.30;;;1.75;;
24547;SDS011;12713;51.624;4.924;2022-10-10T15:45:32;7.20;;;1.88;;
24547;SDS011;12713;51.624;4.924;2022-10-10T15:47:58;11.30;;;2.35;;
24547;SDS011;12713;51.624;4.924;2022-10-10T15:50:24;9.82;;;2.03;;
24547;SDS011;12713;51.624;4.924;2022-10-10T15:52:50;11.30;;;2.42;;
24547;SDS011;12713;51.624;4.924;2022-10-10T15:55:16;9.63;;;2.25;;
24547;SDS011;12713;51.624;4.924;2022-10-10T15:57:42;9.50;;;2.30;;
24547;SDS011;12713;51.624;4.924;2022-10-10T16:00:08;7.38;;;2.30;;
24547;SDS011;12713;51.624;4.924;2022-10-10T16:02:34;16.30;;;2.60;;
24547;SDS011;12713;51.624;4.924;2022-10-10T16:05:02;14.90;;;2.95;;
24547;SDS011;12713;51.624;4.924;2022-10-10T16:07:28;14.13;;;2.60;;
24547;SDS011;12713;51.624;4.924;2022-10-10T16:09:54;12.77;;;2.25;;
24547;SDS011;12713;51.624;4.924;2022-10-10T16:12:22;12.60;;;2.90;;
24547;SDS011;12713;51.624;4.924;2022-10-10T16:14:48;13.10;;;2.72;;
24547;SDS011;12713;51.624;4.924;2022-10-10T16:17:14;13.27;;;2.72;;
24547;SDS011;12713;51.624;4.924;2022-10-10T16:19:40;20.92;;;2.55;;
24547;SDS011;12713;51.624;4.924;2022-10-10T16:22:09;10.73;;;2.42;;
24547;SDS011;12713;51.624;4.924;2022-10-10T16:24:35;16.10;;;2.45;;
24547;SDS011;12713;51.624;4.924;2022-10-10T16:27:01;17.83;;;3.17;;
24547;SDS011;12713;51.624;4.924;2022-10-10T16:29:27;14.20;;;3.05;;